sensor_id;sensor_type;location;lat;lon;timestamp;temperature;humidity
11538;DHT22;50159;49.426;11.182;2023-02-11T00:01:24;-3.40;99.90
11538;DHT22;50159;49.426;11.182;2023-02-11T00:03:53;-3.40;99.90
11538;DHT22;50159;49.426;11.182;2023-02-11T00:06:20;-3.50;99.90
11538;DHT22;50159;49.426;11.182;2023-02-11T00:08:47;-3.50;99.90
11538;DHT22;50159;49.426;11.182;2023-02-11T00:11:17;-3.50;99.90
11538;DHT22;50159;49.426;11.182;2023-02-11T00:13:46;-3.50;99.90
11538;DHT22;50159;49.426;11.182;2023-02-11T00:16:16;-3.50;99.90
11538;DHT22;50159;49.426;11.182;2023-02-11T00:18:45;-3.60;99.90
11538;DHT22;50159;49.426;11.182;2023-02-11T00:21:15;-3.50;99.90
11538;DHT22;50159;49.426;11.182;2023-02-11T00:23:45;-3.50;99.90
11538;DHT22;50159;49.426;11.182;2023-02-11T00:26:20;-3.50;99.90
11538;DHT22;50159;49.426;11.182;2023-02-11T00:28:49;-3.50;99.90
11538;DHT22;50159;49.426;11.182;2023-02-11T00:31:18;-3.50;99.90
11538;DHT22;50159;49.426;11.182;2023-02-11T00:33:46;-3.50;99.90
11538;DHT22;50159;49.426;11.182;2023-02-11T00:36:19;-3.60;99.90
11538;DHT22;50159;49.426;11.182;2023-02-11T00:38:49;-3.50;99.90
11538;DHT22;50159;49.426;11.182;2023-02-11T00:41:18;-3.60;99.90
11538;DHT22;50159;49.426;11.182;2023-02-11T00:43:46;-3.60;99.90
11538;DHT22;50159;49.426;11.182;2023-02-11T00:46:13;-3.70;99.90
11538;DHT22;50159;49.426;11.182;2023-02-11T00:48:41;-3.70;99.90
11538;DHT22;50159;49.426;11.182;2023-02-11T00:51:08;-3.70;99.90
11538;DHT22;50159;49.426;11.182;2023-02-11T00:53:35;-3.70;99.90
11538;DHT22;50159;49.426;11.182;2023-02-11T00:56:03;-3.70;99.90
11538;DHT22;50159;49.426;11.182;2023-02-11T00:58:30;-3.70;99.90
11538;DHT22;50159;49.426;11.182;2023-02-11T01:00:57;-3.70;99.90
11538;DHT22;50159;49.426;11.182;2023-02-11T01:03:24;-3.70;99.90
11538;DHT22;50159;49.426;11.182;2023-02-11T01:05:51;-3.70;99.90
11538;DHT22;50159;49.426;11.182;2023-02-11T01:08:18;-3.70;99.90
11538;DHT22;50159;49.426;11.182;2023-02-11T01:10:53;-3.70;99.90
11538;DHT22;50159;49.426;11.182;2023-02-11T01:13:22;-3.70;99.90
11538;DHT22;50159;49.426;11.182;2023-02-11T01:15:49;-3.70;99.90
11538;DHT22;50159;49.426;11.182;2023-02-11T01:18:16;-3.70;99.90
11538;DHT22;50159;49.426;11.182;2023-02-11T01:20:43;-3.70;99.90
11538;DHT22;50159;49.426;11.182;2023-02-11T01:23:10;-3.80;99.90
11538;DHT22;50159;49.426;11.182;2023-02-11T01:25:37;-3.80;99.90
11538;DHT22;50159;49.426;11.182;2023-02-11T01:28:04;-3.80;99.90
11538;DHT22;50159;49.426;11.182;2023-02-11T01:30:33;-3.80;99.90
11538;DHT22;50159;49.426;11.182;2023-02-11T01:32:59;-3.80;99.90
11538;DHT22;50159;49.426;11.182;2023-02-11T01:35:26;-3.80;99.90
11538;DHT22;50159;49.426;11.182;2023-02-11T01:37:53;-3.70;99.90
11538;DHT22;50159;49.426;11.182;2023-02-11T01:40:20;-3.70;99.90
11538;DHT22;50159;49.426;11.182;2023-02-11T01:42:47;-3.70;99.90
11538;DHT22;50159;49.426;11.182;2023-02-11T01:48:20;-3.70;99.90
11538;DHT22;50159;49.426;11.182;2023-02-11T01:50:55;-3.70;99.90
11538;DHT22;50159;49.426;11.182;2023-02-11T01:53:27;-3.70;99.90
11538;DHT22;50159;49.426;11.182;2023-02-11T01:56:14;-3.60;99.90
11538;DHT22;50159;49.426;11.182;2023-02-11T01:59:06;-3.60;99.90
11538;DHT22;50159;49.426;11.182;2023-02-11T02:01:40;-3.60;99.90
11538;DHT22;50159;49.426;11.182;2023-02-11T02:04:16;-3.60;99.90
11538;DHT22;50159;49.426;11.182;2023-02-11T02:06:50;-3.60;99.90
11538;DHT22;50159;49.426;11.182;2023-02-11T02:09:27;-3.60;99.90
11538;DHT22;50159;49.426;11.182;2023-02-11T02:11:58;-3.70;99.90
11538;DHT22;50159;49.426;11.182;2023-02-11T02:14:25;-3.60;99.90
11538;DHT22;50159;49.426;11.182;2023-02-11T02:16:52;-3.60;99.90
11538;DHT22;50159;49.426;11.182;2023-02-11T02:19:52;-3.60;99.90
11538;DHT22;50159;49.426;11.182;2023-02-11T02:22:58;-3.60;99.90
11538;DHT22;50159;49.426;11.182;2023-02-11T02:29:23;-3.50;99.90
11538;DHT22;50159;49.426;11.182;2023-02-11T02:35:44;-3.40;99.90
11538;DHT22;50159;49.426;11.182;2023-02-11T02:41:30;-3.40;99.90
11538;DHT22;50159;49.426;11.182;2023-02-11T02:43:59;-3.30;99.90
11538;DHT22;50159;49.426;11.182;2023-02-11T02:46:28;-3.30;99.90
11538;DHT22;50159;49.426;11.182;2023-02-11T02:48:59;-3.30;99.90
11538;DHT22;50159;49.426;11.182;2023-02-11T02:54:41;-3.30;99.90
11538;DHT22;50159;49.426;11.182;2023-02-11T02:57:27;-3.20;99.90
11538;DHT22;50159;49.426;11.182;2023-02-11T03:00:56;-3.20;99.90
11538;DHT22;50159;49.426;11.182;2023-02-11T03:06:05;-3.20;99.90
11538;DHT22;50159;49.426;11.182;2023-02-11T03:09:02;-3.20;99.90
11538;DHT22;50159;49.426;11.182;2023-02-11T03:11:37;-3.20;99.90
11538;DHT22;50159;49.426;11.182;2023-02-11T03:14:08;-3.20;99.90
11538;DHT22;50159;49.426;11.182;2023-02-11T03:16:38;-3.20;99.90
11538;DHT22;50159;49.426;11.182;2023-02-11T03:21:44;-3.10;99.90
11538;DHT22;50159;49.426;11.182;2023-02-11T03:24:49;-3.00;99.90
11538;DHT22;50159;49.426;11.182;2023-02-11T03:27:14;-3.00;99.90
11538;DHT22;50159;49.426;11.182;2023-02-11T03:29:54;-3.00;99.90
11538;DHT22;50159;49.426;11.182;2023-02-11T03:32:36;-2.90;99.90
11538;DHT22;50159;49.426;11.182;2023-02-11T03:35:09;-2.80;99.90
11538;DHT22;50159;49.426;11.182;2023-02-11T03:37:56;-2.80;99.90
11538;DHT22;50159;49.426;11.182;2023-02-11T03:40:31;-2.80;99.90
11538;DHT22;50159;49.426;11.182;2023-02-11T03:45:50;-2.70;99.90
11538;DHT22;50159;49.426;11.182;2023-02-11T03:48:38;-2.60;99.90
11538;DHT22;50159;49.426;11.182;2023-02-11T03:51:10;-2.50;99.90
11538;DHT22;50159;49.426;11.182;2023-02-11T03:53:41;-2.50;99.90
11538;DHT22;50159;49.426;11.182;2023-02-11T03:56:14;-2.50;99.90
11538;DHT22;50159;49.426;11.182;2023-02-11T03:58:44;-2.40;99.90
11538;DHT22;50159;49.426;11.182;2023-02-11T04:01:12;-2.40;99.90
11538;DHT22;50159;49.426;11.182;2023-02-11T04:03:40;-2.40;99.90
11538;DHT22;50159;49.426;11.182;2023-02-11T04:06:07;-2.40;99.90
11538;DHT22;50159;49.426;11.182;2023-02-11T04:08:34;-2.30;99.90
11538;DHT22;50159;49.426;11.182;2023-02-11T04:11:00;-2.30;99.90
11538;DHT22;50159;49.426;11.182;2023-02-11T04:13:27;-2.30;99.90
11538;DHT22;50159;49.426;11.182;2023-02-11T04:15:55;-2.20;99.90
11538;DHT22;50159;49.426;11.182;2023-02-11T04:18:21;-2.20;99.90
11538;DHT22;50159;49.426;11.182;2023-02-11T04:20:49;-2.10;99.90
11538;DHT22;50159;49.426;11.182;2023-02-11T04:23:16;-2.10;99.90
11538;DHT22;50159;49.426;11.182;2023-02-11T04:25:43;-2.10;99.90
11538;DHT22;50159;49.426;11.182;2023-02-11T04:28:10;-2.00;99.90
11538;DHT22;50159;49.426;11.182;2023-02-11T04:30:37;-2.10;99.90
11538;DHT22;50159;49.426;11.182;2023-02-11T04:33:03;-2.10;99.90
11538;DHT22;50159;49.426;11.182;2023-02-11T04:35:30;-2.20;99.90
11538;DHT22;50159;49.426;11.182;2023-02-11T04:37:57;-2.20;99.90
11538;DHT22;50159;49.426;11.182;2023-02-11T04:40:24;-2.20;99.90
11538;DHT22;50159;49.426;11.182;2023-02-11T04:42:50;-2.30;99.90
11538;DHT22;50159;49.426;11.182;2023-02-11T04:45:17;-2.20;99.90
11538;DHT22;50159;49.426;11.182;2023-02-11T04:47:44;-2.30;99.90
11538;DHT22;50159;49.426;11.182;2023-02-11T04:50:11;-2.30;99.90
11538;DHT22;50159;49.426;11.182;2023-02-11T04:52:37;-2.30;99.90
11538;DHT22;50159;49.426;11.182;2023-02-11T04:55:04;-2.20;99.90
11538;DHT22;50159;49.426;11.182;2023-02-11T04:57:31;-2.20;99.90
11538;DHT22;50159;49.426;11.182;2023-02-11T04:59:58;-2.20;99.90
11538;DHT22;50159;49.426;11.182;2023-02-11T05:02:25;-2.10;99.90
11538;DHT22;50159;49.426;11.182;2023-02-11T05:04:52;-2.10;99.90
11538;DHT22;50159;49.426;11.182;2023-02-11T05:07:18;-2.00;99.90
11538;DHT22;50159;49.426;11.182;2023-02-11T05:09:45;-2.00;99.90
11538;DHT22;50159;49.426;11.182;2023-02-11T05:12:12;-2.00;99.90
11538;DHT22;50159;49.426;11.182;2023-02-11T05:14:39;-2.00;99.90
11538;DHT22;50159;49.426;11.182;2023-02-11T05:17:06;-1.90;99.90
11538;DHT22;50159;49.426;11.182;2023-02-11T05:19:32;-1.90;99.90
11538;DHT22;50159;49.426;11.182;2023-02-11T05:21:59;-1.90;99.90
11538;DHT22;50159;49.426;11.182;2023-02-11T05:24:30;-1.90;99.90
11538;DHT22;50159;49.426;11.182;2023-02-11T05:26:58;-1.90;99.90
11538;DHT22;50159;49.426;11.182;2023-02-11T05:29:25;-1.80;99.90
11538;DHT22;50159;49.426;11.182;2023-02-11T05:31:52;-1.80;99.90
11538;DHT22;50159;49.426;11.182;2023-02-11T05:34:19;-1.90;99.90
11538;DHT22;50159;49.426;11.182;2023-02-11T05:36:45;-1.80;99.90
11538;DHT22;50159;49.426;11.182;2023-02-11T05:39:12;-1.80;99.90
11538;DHT22;50159;49.426;11.182;2023-02-11T05:41:39;-1.80;99.90
11538;DHT22;50159;49.426;11.182;2023-02-11T05:44:06;-1.80;99.90
11538;DHT22;50159;49.426;11.182;2023-02-11T05:46:32;-1.90;99.90
11538;DHT22;50159;49.426;11.182;2023-02-11T05:48:59;-1.90;99.90
11538;DHT22;50159;49.426;11.182;2023-02-11T05:51:26;-1.90;99.90
11538;DHT22;50159;49.426;11.182;2023-02-11T05:53:53;-1.90;99.90
11538;DHT22;50159;49.426;11.182;2023-02-11T05:56:19;-1.90;99.90
11538;DHT22;50159;49.426;11.182;2023-02-11T05:58:46;-1.80;99.90
11538;DHT22;50159;49.426;11.182;2023-02-11T06:01:13;-1.80;99.90
11538;DHT22;50159;49.426;11.182;2023-02-11T06:03:40;-1.70;99.90
11538;DHT22;50159;49.426;11.182;2023-02-11T06:06:11;-1.70;99.90
11538;DHT22;50159;49.426;11.182;2023-02-11T06:08:38;-1.60;99.90
11538;DHT22;50159;49.426;11.182;2023-02-11T06:11:05;-1.60;99.90
11538;DHT22;50159;49.426;11.182;2023-02-11T06:13:32;-1.60;99.90
11538;DHT22;50159;49.426;11.182;2023-02-11T06:16:00;-1.60;99.90
11538;DHT22;50159;49.426;11.182;2023-02-11T06:18:28;-1.60;99.90
11538;DHT22;50159;49.426;11.182;2023-02-11T06:20:55;-1.50;99.90
11538;DHT22;50159;49.426;11.182;2023-02-11T06:23:22;-1.50;99.90
11538;DHT22;50159;49.426;11.182;2023-02-11T06:25:49;-1.50;99.90
11538;DHT22;50159;49.426;11.182;2023-02-11T06:28:17;-1.50;99.90
11538;DHT22;50159;49.426;11.182;2023-02-11T06:30:44;-1.40;99.90
11538;DHT22;50159;49.426;11.182;2023-02-11T06:33:11;-1.40;99.90
11538;DHT22;50159;49.426;11.182;2023-02-11T06:35:38;-1.40;99.90
11538;DHT22;50159;49.426;11.182;2023-02-11T06:38:05;-1.50;99.90
11538;DHT22;50159;49.426;11.182;2023-02-11T06:40:32;-1.50;99.90
11538;DHT22;50159;49.426;11.182;2023-02-11T06:42:59;-1.50;99.90
11538;DHT22;50159;49.426;11.182;2023-02-11T06:45:26;-1.50;99.90
11538;DHT22;50159;49.426;11.182;2023-02-11T06:47:53;-1.50;99.90
11538;DHT22;50159;49.426;11.182;2023-02-11T06:50:19;-1.50;99.90
11538;DHT22;50159;49.426;11.182;2023-02-11T06:52:46;-1.50;99.90
11538;DHT22;50159;49.426;11.182;2023-02-11T06:55:13;-1.60;99.90
11538;DHT22;50159;49.426;11.182;2023-02-11T06:57:40;-1.60;99.90
11538;DHT22;50159;49.426;11.182;2023-02-11T07:00:08;-1.60;99.90
11538;DHT22;50159;49.426;11.182;2023-02-11T07:02:35;-1.60;99.90
11538;DHT22;50159;49.426;11.182;2023-02-11T07:05:03;-1.60;99.90
11538;DHT22;50159;49.426;11.182;2023-02-11T07:07:31;-1.60;99.90
11538;DHT22;50159;49.426;11.182;2023-02-11T07:09:59;-1.60;99.90
11538;DHT22;50159;49.426;11.182;2023-02-11T07:12:29;-1.60;99.90
11538;DHT22;50159;49.426;11.182;2023-02-11T07:14:57;-1.60;99.90
11538;DHT22;50159;49.426;11.182;2023-02-11T07:17:23;-1.60;99.90
11538;DHT22;50159;49.426;11.182;2023-02-11T07:19:50;-1.60;99.90
11538;DHT22;50159;49.426;11.182;2023-02-11T07:22:17;-1.60;99.90
11538;DHT22;50159;49.426;11.182;2023-02-11T07:24:44;-1.60;99.90
11538;DHT22;50159;49.426;11.182;2023-02-11T07:27:11;-1.50;99.90
11538;DHT22;50159;49.426;11.182;2023-02-11T07:29:38;-1.50;99.90
11538;DHT22;50159;49.426;11.182;2023-02-11T07:32:06;-1.40;99.90
11538;DHT22;50159;49.426;11.182;2023-02-11T07:34:34;-1.20;99.90
11538;DHT22;50159;49.426;11.182;2023-02-11T07:37:00;-0.70;99.90
11538;DHT22;50159;49.426;11.182;2023-02-11T07:39:27;0.10;99.90
11538;DHT22;50159;49.426;11.182;2023-02-11T07:41:55;1.10;99.90
11538;DHT22;50159;49.426;11.182;2023-02-11T07:44:22;2.20;99.90
11538;DHT22;50159;49.426;11.182;2023-02-11T07:46:49;2.90;99.90
11538;DHT22;50159;49.426;11.182;2023-02-11T07:49:16;2.70;99.90
11538;DHT22;50159;49.426;11.182;2023-02-11T07:51:42;2.50;99.90
11538;DHT22;50159;49.426;11.182;2023-02-11T07:54:10;2.20;99.90
11538;DHT22;50159;49.426;11.182;2023-02-11T07:56:37;1.90;99.90
11538;DHT22;50159;49.426;11.182;2023-02-11T07:59:04;1.60;99.90
11538;DHT22;50159;49.426;11.182;2023-02-11T08:01:31;1.40;99.90
11538;DHT22;50159;49.426;11.182;2023-02-11T08:03:59;1.30;99.90
11538;DHT22;50159;49.426;11.182;2023-02-11T08:06:30;1.20;99.90
11538;DHT22;50159;49.426;11.182;2023-02-11T08:09:04;1.20;99.90
11538;DHT22;50159;49.426;11.182;2023-02-11T08:11:32;1.50;99.90
11538;DHT22;50159;49.426;11.182;2023-02-11T08:13:59;1.90;99.90
11538;DHT22;50159;49.426;11.182;2023-02-11T08:16:34;2.10;99.90
11538;DHT22;50159;49.426;11.182;2023-02-11T08:19:05;2.20;99.90
11538;DHT22;50159;49.426;11.182;2023-02-11T08:21:35;2.20;99.90
11538;DHT22;50159;49.426;11.182;2023-02-11T08:24:02;2.20;99.90
11538;DHT22;50159;49.426;11.182;2023-02-11T08:26:31;2.20;99.90
11538;DHT22;50159;49.426;11.182;2023-02-11T08:29:04;2.10;99.90
11538;DHT22;50159;49.426;11.182;2023-02-11T08:31:36;2.10;99.90
11538;DHT22;50159;49.426;11.182;2023-02-11T08:34:05;2.00;99.90
11538;DHT22;50159;49.426;11.182;2023-02-11T08:36:34;2.00;99.90
11538;DHT22;50159;49.426;11.182;2023-02-11T08:39:05;2.00;99.90
11538;DHT22;50159;49.426;11.182;2023-02-11T08:41:46;2.10;99.90
11538;DHT22;50159;49.426;11.182;2023-02-11T08:44:15;2.10;99.90
11538;DHT22;50159;49.426;11.182;2023-02-11T08:46:43;2.20;99.90
11538;DHT22;50159;49.426;11.182;2023-02-11T08:49:10;2.20;99.90
11538;DHT22;50159;49.426;11.182;2023-02-11T08:51:37;2.30;99.90
11538;DHT22;50159;49.426;11.182;2023-02-11T08:54:03;2.30;99.90
11538;DHT22;50159;49.426;11.182;2023-02-11T08:56:35;2.40;99.90
11538;DHT22;50159;49.426;11.182;2023-02-11T08:59:03;2.50;99.90
11538;DHT22;50159;49.426;11.182;2023-02-11T09:01:31;2.50;99.90
11538;DHT22;50159;49.426;11.182;2023-02-11T09:03:58;2.60;99.90
11538;DHT22;50159;49.426;11.182;2023-02-11T09:06:27;2.60;99.90
11538;DHT22;50159;49.426;11.182;2023-02-11T09:08:56;2.70;99.90
11538;DHT22;50159;49.426;11.182;2023-02-11T09:11:32;2.80;99.90
11538;DHT22;50159;49.426;11.182;2023-02-11T09:14:01;2.80;99.90
11538;DHT22;50159;49.426;11.182;2023-02-11T09:16:31;2.90;99.90
11538;DHT22;50159;49.426;11.182;2023-02-11T09:19:01;3.00;99.90
11538;DHT22;50159;49.426;11.182;2023-02-11T09:21:30;3.10;99.90
11538;DHT22;50159;49.426;11.182;2023-02-11T09:23:57;3.20;99.90
11538;DHT22;50159;49.426;11.182;2023-02-11T09:26:29;3.30;99.90
11538;DHT22;50159;49.426;11.182;2023-02-11T09:28:58;3.40;99.90
11538;DHT22;50159;49.426;11.182;2023-02-11T09:31:27;3.50;99.90
11538;DHT22;50159;49.426;11.182;2023-02-11T09:33:59;3.60;99.90
11538;DHT22;50159;49.426;11.182;2023-02-11T09:36:35;3.70;99.90
11538;DHT22;50159;49.426;11.182;2023-02-11T09:39:07;3.80;99.90
11538;DHT22;50159;49.426;11.182;2023-02-11T09:44:26;3.90;99.90
11538;DHT22;50159;49.426;11.182;2023-02-11T09:47:04;3.90;99.90
11538;DHT22;50159;49.426;11.182;2023-02-11T09:49:41;3.80;99.90
11538;DHT22;50159;49.426;11.182;2023-02-11T09:52:44;3.80;99.90
11538;DHT22;50159;49.426;11.182;2023-02-11T09:55:22;3.80;99.90
11538;DHT22;50159;49.426;11.182;2023-02-11T09:57:52;3.90;99.90
11538;DHT22;50159;49.426;11.182;2023-02-11T10:01:26;4.10;99.90
11538;DHT22;50159;49.426;11.182;2023-02-11T10:06:53;4.60;99.90
11538;DHT22;50159;49.426;11.182;2023-02-11T10:24:29;6.00;99.20
11538;DHT22;50159;49.426;11.182;2023-02-11T10:26:57;6.30;96.50
11538;DHT22;50159;49.426;11.182;2023-02-11T10:29:35;6.20;94.70
11538;DHT22;50159;49.426;11.182;2023-02-11T10:32:40;6.00;94.70
11538;DHT22;50159;49.426;11.182;2023-02-11T10:35:16;5.90;95.60
11538;DHT22;50159;49.426;11.182;2023-02-11T10:37:47;6.00;95.80
11538;DHT22;50159;49.426;11.182;2023-02-11T10:40:22;6.00;95.80
11538;DHT22;50159;49.426;11.182;2023-02-11T10:43:03;6.10;95.50
11538;DHT22;50159;49.426;11.182;2023-02-11T10:45:43;6.00;95.40
11538;DHT22;50159;49.426;11.182;2023-02-11T10:51:27;5.90;95.50
11538;DHT22;50159;49.426;11.182;2023-02-11T10:56:34;5.80;96.00
11538;DHT22;50159;49.426;11.182;2023-02-11T11:02:26;5.80;96.50
11538;DHT22;50159;49.426;11.182;2023-02-11T11:05:13;5.80;96.60
11538;DHT22;50159;49.426;11.182;2023-02-11T11:07:52;5.80;96.70
11538;DHT22;50159;49.426;11.182;2023-02-11T11:10:35;5.80;97.10
11538;DHT22;50159;49.426;11.182;2023-02-11T11:13:02;5.90;97.40
11538;DHT22;50159;49.426;11.182;2023-02-11T11:15:33;5.90;97.30
11538;DHT22;50159;49.426;11.182;2023-02-11T11:18:16;5.90;97.40
11538;DHT22;50159;49.426;11.182;2023-02-11T11:21:00;6.10;97.60
11538;DHT22;50159;49.426;11.182;2023-02-11T11:23:29;6.20;96.80
11538;DHT22;50159;49.426;11.182;2023-02-11T11:26:09;6.20;96.60
11538;DHT22;50159;49.426;11.182;2023-02-11T11:31:16;6.00;97.20
11538;DHT22;50159;49.426;11.182;2023-02-11T11:33:46;5.90;97.20
11538;DHT22;50159;49.426;11.182;2023-02-11T11:36:19;5.90;97.60
11538;DHT22;50159;49.426;11.182;2023-02-11T11:38:56;5.80;97.80
11538;DHT22;50159;49.426;11.182;2023-02-11T11:41:27;5.80;98.00
11538;DHT22;50159;49.426;11.182;2023-02-11T11:47:19;5.80;98.50
11538;DHT22;50159;49.426;11.182;2023-02-11T11:50:15;5.80;98.50
11538;DHT22;50159;49.426;11.182;2023-02-11T11:56:20;6.00;98.40
11538;DHT22;50159;49.426;11.182;2023-02-11T11:58:50;6.10;98.50
11538;DHT22;50159;49.426;11.182;2023-02-11T12:07:40;6.30;98.10
11538;DHT22;50159;49.426;11.182;2023-02-11T12:10:32;6.30;98.00
11538;DHT22;50159;49.426;11.182;2023-02-11T12:19:40;6.30;97.90
11538;DHT22;50159;49.426;11.182;2023-02-11T12:25:47;6.40;98.10
11538;DHT22;50159;49.426;11.182;2023-02-11T12:31:16;6.50;97.70
11538;DHT22;50159;49.426;11.182;2023-02-11T12:54:48;6.20;97.00
11538;DHT22;50159;49.426;11.182;2023-02-11T12:57:25;6.10;97.00
11538;DHT22;50159;49.426;11.182;2023-02-11T13:00:07;6.10;97.00
11538;DHT22;50159;49.426;11.182;2023-02-11T13:05:44;6.00;97.30
11538;DHT22;50159;49.426;11.182;2023-02-11T13:11:16;6.00;97.50
11538;DHT22;50159;49.426;11.182;2023-02-11T13:16:41;6.20;97.50
11538;DHT22;50159;49.426;11.182;2023-02-11T13:24:50;6.50;96.30
11538;DHT22;50159;49.426;11.182;2023-02-11T13:27:41;6.60;95.60
11538;DHT22;50159;49.426;11.182;2023-02-11T13:30:35;6.60;95.60
11538;DHT22;50159;49.426;11.182;2023-02-11T13:33:18;6.50;95.80
11538;DHT22;50159;49.426;11.182;2023-02-11T13:38:24;6.40;95.10
11538;DHT22;50159;49.426;11.182;2023-02-11T13:41:02;6.30;94.80
11538;DHT22;50159;49.426;11.182;2023-02-11T13:43:42;6.20;95.00
11538;DHT22;50159;49.426;11.182;2023-02-11T13:46:11;6.10;95.20
11538;DHT22;50159;49.426;11.182;2023-02-11T13:48:48;6.10;95.40
11538;DHT22;50159;49.426;11.182;2023-02-11T13:51:35;6.10;95.30
11538;DHT22;50159;49.426;11.182;2023-02-11T13:54:05;6.00;95.20
11538;DHT22;50159;49.426;11.182;2023-02-11T13:56:39;6.10;95.30
11538;DHT22;50159;49.426;11.182;2023-02-11T14:02:20;6.10;95.10
11538;DHT22;50159;49.426;11.182;2023-02-11T14:10:55;6.20;95.20
11538;DHT22;50159;49.426;11.182;2023-02-11T14:13:34;6.20;95.40
11538;DHT22;50159;49.426;11.182;2023-02-11T14:16:06;6.10;95.90
11538;DHT22;50159;49.426;11.182;2023-02-11T14:26:55;6.00;97.70
11538;DHT22;50159;49.426;11.182;2023-02-11T14:41:25;5.80;99.90
11538;DHT22;50159;49.426;11.182;2023-02-11T14:44:05;5.70;99.90
11538;DHT22;50159;49.426;11.182;2023-02-11T14:46:47;5.60;99.90
11538;DHT22;50159;49.426;11.182;2023-02-11T14:49:29;5.60;99.90
11538;DHT22;50159;49.426;11.182;2023-02-11T14:52:12;5.60;99.90
11538;DHT22;50159;49.426;11.182;2023-02-11T14:57:32;5.50;99.90
11538;DHT22;50159;49.426;11.182;2023-02-11T15:00:03;5.40;99.90
11538;DHT22;50159;49.426;11.182;2023-02-11T15:02:39;5.40;99.90
11538;DHT22;50159;49.426;11.182;2023-02-11T15:05:21;5.40;99.90
11538;DHT22;50159;49.426;11.182;2023-02-11T15:07:58;5.30;99.90
11538;DHT22;50159;49.426;11.182;2023-02-11T15:10:34;5.30;99.90
11538;DHT22;50159;49.426;11.182;2023-02-11T15:13:07;5.30;99.90
11538;DHT22;50159;49.426;11.182;2023-02-11T15:15:34;5.20;99.90
11538;DHT22;50159;49.426;11.182;2023-02-11T15:18:06;5.20;99.90
11538;DHT22;50159;49.426;11.182;2023-02-11T15:20:35;5.20;99.90
11538;DHT22;50159;49.426;11.182;2023-02-11T15:23:06;5.10;99.90
11538;DHT22;50159;49.426;11.182;2023-02-11T15:25:42;5.10;99.90
11538;DHT22;50159;49.426;11.182;2023-02-11T15:28:27;5.10;99.90
11538;DHT22;50159;49.426;11.182;2023-02-11T15:31:00;5.10;99.90
11538;DHT22;50159;49.426;11.182;2023-02-11T15:33:32;5.00;99.90
11538;DHT22;50159;49.426;11.182;2023-02-11T15:35:59;5.00;99.90
11538;DHT22;50159;49.426;11.182;2023-02-11T15:38:28;5.00;99.90
11538;DHT22;50159;49.426;11.182;2023-02-11T15:40:58;5.00;99.90
11538;DHT22;50159;49.426;11.182;2023-02-11T15:43:41;5.00;99.90
11538;DHT22;50159;49.426;11.182;2023-02-11T15:46:11;5.00;99.90
11538;DHT22;50159;49.426;11.182;2023-02-11T15:48:52;5.00;99.90
11538;DHT22;50159;49.426;11.182;2023-02-11T15:51:24;5.00;99.90
11538;DHT22;50159;49.426;11.182;2023-02-11T15:54:00;4.90;99.90
11538;DHT22;50159;49.426;11.182;2023-02-11T15:56:40;5.00;99.90
11538;DHT22;50159;49.426;11.182;2023-02-11T15:59:16;4.90;99.90
11538;DHT22;50159;49.426;11.182;2023-02-11T16:01:46;4.90;99.90
11538;DHT22;50159;49.426;11.182;2023-02-11T16:04:25;4.90;99.90
11538;DHT22;50159;49.426;11.182;2023-02-11T16:06:54;4.90;99.90
11538;DHT22;50159;49.426;11.182;2023-02-11T16:09:32;4.90;99.90
11538;DHT22;50159;49.426;11.182;2023-02-11T16:12:03;4.90;99.90
11538;DHT22;50159;49.426;11.182;2023-02-11T16:14:47;4.90;99.90
11538;DHT22;50159;49.426;11.182;2023-02-11T16:19:46;4.80;99.90
11538;DHT22;50159;49.426;11.182;2023-02-11T16:22:26;4.80;99.90
11538;DHT22;50159;49.426;11.182;2023-02-11T16:24:58;4.80;99.90
11538;DHT22;50159;49.426;11.182;2023-02-11T16:27:28;4.80;99.90
11538;DHT22;50159;49.426;11.182;2023-02-11T16:30:01;4.80;99.90
11538;DHT22;50159;49.426;11.182;2023-02-11T16:32:28;4.70;99.90
11538;DHT22;50159;49.426;11.182;2023-02-11T16:34:58;4.70;99.90
11538;DHT22;50159;49.426;11.182;2023-02-11T16:37:26;4.70;99.90
11538;DHT22;50159;49.426;11.182;2023-02-11T16:39:56;4.70;99.90
11538;DHT22;50159;49.426;11.182;2023-02-11T16:42:23;4.70;99.90
11538;DHT22;50159;49.426;11.182;2023-02-11T16:44:50;4.70;99.90
11538;DHT22;50159;49.426;11.182;2023-02-11T16:47:25;4.60;99.90
11538;DHT22;50159;49.426;11.182;2023-02-11T16:49:54;4.60;99.90
11538;DHT22;50159;49.426;11.182;2023-02-11T16:52:23;4.60;99.90
11538;DHT22;50159;49.426;11.182;2023-02-11T16:54:50;4.60;99.90
11538;DHT22;50159;49.426;11.182;2023-02-11T16:57:20;4.50;99.90
11538;DHT22;50159;49.426;11.182;2023-02-11T16:59:48;4.50;99.90
11538;DHT22;50159;49.426;11.182;2023-02-11T17:02:21;4.50;99.90
11538;DHT22;50159;49.426;11.182;2023-02-11T17:04:53;4.50;99.90
11538;DHT22;50159;49.426;11.182;2023-02-11T17:07:21;4.40;99.90
11538;DHT22;50159;49.426;11.182;2023-02-11T17:09:48;4.40;99.90
11538;DHT22;50159;49.426;11.182;2023-02-11T17:12:15;4.40;99.90
11538;DHT22;50159;49.426;11.182;2023-02-11T17:14:42;4.30;99.90
11538;DHT22;50159;49.426;11.182;2023-02-11T17:17:10;4.30;99.90
11538;DHT22;50159;49.426;11.182;2023-02-11T17:19:37;4.30;99.90
11538;DHT22;50159;49.426;11.182;2023-02-11T17:22:05;4.20;99.90
11538;DHT22;50159;49.426;11.182;2023-02-11T17:24:32;4.20;99.90
11538;DHT22;50159;49.426;11.182;2023-02-11T17:26:58;4.20;99.90
11538;DHT22;50159;49.426;11.182;2023-02-11T17:29:25;4.10;99.90
11538;DHT22;50159;49.426;11.182;2023-02-11T17:31:52;4.10;99.90
11538;DHT22;50159;49.426;11.182;2023-02-11T17:34:20;4.10;99.90
11538;DHT22;50159;49.426;11.182;2023-02-11T17:36:48;4.10;99.90
11538;DHT22;50159;49.426;11.182;2023-02-11T17:39:15;4.10;99.90
11538;DHT22;50159;49.426;11.182;2023-02-11T17:41:42;4.00;99.90
11538;DHT22;50159;49.426;11.182;2023-02-11T17:44:10;4.00;99.90
11538;DHT22;50159;49.426;11.182;2023-02-11T17:46:37;4.00;99.90
11538;DHT22;50159;49.426;11.182;2023-02-11T17:49:04;4.00;99.90
11538;DHT22;50159;49.426;11.182;2023-02-11T17:51:36;4.00;99.90
11538;DHT22;50159;49.426;11.182;2023-02-11T17:54:09;4.00;99.90
11538;DHT22;50159;49.426;11.182;2023-02-11T17:56:37;4.00;99.90
11538;DHT22;50159;49.426;11.182;2023-02-11T17:59:05;4.00;99.90
11538;DHT22;50159;49.426;11.182;2023-02-11T18:01:35;4.00;99.90
11538;DHT22;50159;49.426;11.182;2023-02-11T18:04:04;4.00;99.90
11538;DHT22;50159;49.426;11.182;2023-02-11T18:06:32;3.90;99.90
11538;DHT22;50159;49.426;11.182;2023-02-11T18:08:59;3.90;99.90
11538;DHT22;50159;49.426;11.182;2023-02-11T18:11:28;3.80;99.90
11538;DHT22;50159;49.426;11.182;2023-02-11T18:14:03;3.80;99.90
11538;DHT22;50159;49.426;11.182;2023-02-11T18:16:33;3.80;99.90
11538;DHT22;50159;49.426;11.182;2023-02-11T18:19:02;3.70;99.90
11538;DHT22;50159;49.426;11.182;2023-02-11T18:21:29;3.70;99.90
11538;DHT22;50159;49.426;11.182;2023-02-11T18:23:55;3.70;99.90
11538;DHT22;50159;49.426;11.182;2023-02-11T18:26:22;3.70;99.90
11538;DHT22;50159;49.426;11.182;2023-02-11T18:28:55;3.70;99.90